createdAt,value
2022-10-22T00:00:04.534Z,5.88
2022-10-22T00:02:32.286Z,6.20
2022-10-22T00:04:59.873Z,5.70
2022-10-22T00:07:28.102Z,10.82
2022-10-22T00:09:55.679Z,3.35
2022-10-22T00:12:23.565Z,6.60
2022-10-22T00:14:52.530Z,7.18
2022-10-22T00:17:20.387Z,7.95
2022-10-22T00:19:47.993Z,8.73
2022-10-22T00:22:15.600Z,4.38
2022-10-22T00:24:46.363Z,6.45
2022-10-22T00:27:14.698Z,6.50
2022-10-22T00:29:42.360Z,6.97
2022-10-22T00:32:11.316Z,7.78
2022-10-22T00:34:38.930Z,7.25
2022-10-22T00:37:06.504Z,10.52
2022-10-22T00:39:34.186Z,8.02
2022-10-22T00:42:01.818Z,8.00
2022-10-22T00:44:47.654Z,7.72
2022-10-22T00:47:17.153Z,6.97
2022-10-22T00:49:45.525Z,8.73
2022-10-22T00:52:13.741Z,6.60
2022-10-22T00:54:42.313Z,5.65
2022-10-22T00:57:09.946Z,3.95
2022-10-22T00:59:37.749Z,7.72
2022-10-22T01:02:05.611Z,4.43
2022-10-22T01:04:34.752Z,4.68
2022-10-22T01:07:02.637Z,11.77
2022-10-22T01:09:34.643Z,7.82
2022-10-22T01:12:04.304Z,5.15
2022-10-22T01:14:37.159Z,7.30
2022-10-22T01:17:07.253Z,8.05
2022-10-22T01:19:47.109Z,6.63
2022-10-22T01:22:20.134Z,9.25
2022-10-22T01:24:54.470Z,5.45
2022-10-22T01:27:40.982Z,6.40
2022-10-22T01:30:11.486Z,6.45
2022-10-22T01:32:43.749Z,7.45
2022-10-22T01:35:13.512Z,6.38
2022-10-22T01:37:42.961Z,11.52
2022-10-22T01:40:11.757Z,6.10
2022-10-22T01:42:39.407Z,8.05
2022-10-22T01:45:14.019Z,3.40
2022-10-22T01:47:45.507Z,8.85
2022-10-22T01:50:29.969Z,10.68
2022-10-22T01:53:02.716Z,6.97
2022-10-22T01:55:32.328Z,4.65
2022-10-22T01:58:06.476Z,6.57
2022-10-22T02:00:38.261Z,5.78
2022-10-22T02:03:09.073Z,7.10
2022-10-22T02:05:39.053Z,6.35
2022-10-22T02:08:09.884Z,10.13
2022-10-22T02:10:38.346Z,6.05
2022-10-22T02:13:09.222Z,9.77
2022-10-22T02:15:39.015Z,5.00
2022-10-22T02:18:07.872Z,7.35
2022-10-22T02:20:37.429Z,4.00
2022-10-22T02:23:05.497Z,6.03
2022-10-22T02:25:35.034Z,8.75
2022-10-22T02:28:05.390Z,5.55
2022-10-22T02:30:33.710Z,5.82
2022-10-22T02:33:04.002Z,10.70
2022-10-22T02:35:32.379Z,10.60
2022-10-22T02:38:00.940Z,15.57
2022-10-22T02:40:29.249Z,11.55
2022-10-22T02:42:56.927Z,9.25
2022-10-22T02:45:24.727Z,5.95
2022-10-22T02:47:52.836Z,11.05
2022-10-22T02:50:22.036Z,6.43
2022-10-22T02:52:49.719Z,7.68
2022-10-22T02:55:17.496Z,8.13
2022-10-22T02:57:45.135Z,8.40
2022-10-22T03:00:13.531Z,8.20
2022-10-22T03:02:41.110Z,4.60
2022-10-22T03:05:09.377Z,4.88
2022-10-22T03:07:38.832Z,5.55
2022-10-22T03:10:07.093Z,10.50
2022-10-22T03:12:34.745Z,5.60
2022-10-22T03:15:02.363Z,6.18
2022-10-22T03:17:30.051Z,9.50
2022-10-22T03:19:57.715Z,5.78
2022-10-22T03:22:27.747Z,3.22
2022-10-22T03:24:58.656Z,16.15
2022-10-22T03:27:27.320Z,9.60
2022-10-22T03:29:54.939Z,6.60
2022-10-22T03:32:22.580Z,7.22
2022-10-22T03:34:50.678Z,8.52
2022-10-22T03:37:18.439Z,6.15
2022-10-22T03:39:46.275Z,7.82
2022-10-22T03:42:16.295Z,5.60
2022-10-22T03:44:44.413Z,5.95
2022-10-22T03:47:12.145Z,8.65
2022-10-22T03:49:39.816Z,7.18
2022-10-22T03:52:07.974Z,7.40
2022-10-22T03:54:36.252Z,5.00
2022-10-22T03:57:03.923Z,7.15
2022-10-22T03:59:36.507Z,8.00
2022-10-22T04:02:04.436Z,7.30
2022-10-22T04:04:32.063Z,3.67
2022-10-22T04:06:59.864Z,6.90
2022-10-22T04:09:27.476Z,6.38
2022-10-22T04:11:55.177Z,6.53
2022-10-22T04:14:22.869Z,11.73
2022-10-22T04:16:51.828Z,2.47
2022-10-22T04:19:19.425Z,4.97
2022-10-22T04:21:47.041Z,7.75
2022-10-22T04:24:14.689Z,6.50
2022-10-22T04:26:42.861Z,11.75
2022-10-22T04:29:13.559Z,5.28
2022-10-22T04:31:43.733Z,8.20
2022-10-22T04:34:12.721Z,8.15
2022-10-22T04:36:40.313Z,7.32
2022-10-22T04:39:08.059Z,7.90
2022-10-22T04:41:36.366Z,7.43
2022-10-22T04:44:04.302Z,5.93
2022-10-22T04:46:33.568Z,2.92
2022-10-22T04:49:03.345Z,6.93
2022-10-22T04:51:32.650Z,7.82
2022-10-22T04:54:00.420Z,8.10
2022-10-22T04:56:29.182Z,19.20
2022-10-22T04:58:58.011Z,8.10
2022-10-22T05:01:26.867Z,7.93
2022-10-22T05:03:55.146Z,8.02
2022-10-22T05:06:22.994Z,10.98
2022-10-22T05:08:55.747Z,12.02
2022-10-22T05:11:24.791Z,3.67
2022-10-22T05:13:52.395Z,8.55
2022-10-22T05:16:20.150Z,5.68
2022-10-22T05:18:47.794Z,3.42
2022-10-22T05:21:16.299Z,6.18
2022-10-22T05:23:44.343Z,10.30
2022-10-22T05:26:14.007Z,5.32
2022-10-22T05:28:41.672Z,7.22
2022-10-22T05:31:10.293Z,3.10
2022-10-22T05:33:38.132Z,5.97
2022-10-22T05:36:06.562Z,5.85
2022-10-22T05:38:34.856Z,8.80
2022-10-22T05:41:02.665Z,5.63
2022-10-22T05:43:31.824Z,5.45
2022-10-22T05:46:03.068Z,8.45
2022-10-22T05:51:05.536Z,4.90
2022-10-22T05:53:33.340Z,7.50
2022-10-22T05:56:01.544Z,9.48
2022-10-22T05:58:29.287Z,6.70
2022-10-22T06:01:01.674Z,6.85
2022-10-22T06:03:29.901Z,4.43
2022-10-22T06:05:57.531Z,7.10
2022-10-22T06:08:25.182Z,6.10
2022-10-22T06:10:55.124Z,6.78
2022-10-22T06:13:22.986Z,6.75
2022-10-22T06:15:50.736Z,9.43
2022-10-22T06:18:20.020Z,8.27
2022-10-22T06:20:48.198Z,4.50
2022-10-22T06:23:16.092Z,8.60
2022-10-22T06:25:44.506Z,4.82
2022-10-22T06:28:12.195Z,11.27
2022-10-22T06:30:42.939Z,4.63
2022-10-22T06:33:13.476Z,7.90
2022-10-22T06:35:42.460Z,4.57
2022-10-22T06:38:10.115Z,8.27
2022-10-22T06:40:37.749Z,9.38
2022-10-22T06:43:06.097Z,8.88
2022-10-22T06:45:33.757Z,2.88
2022-10-22T06:48:01.722Z,7.80
2022-10-22T06:50:29.461Z,9.70
2022-10-22T06:52:58.736Z,6.13
2022-10-22T06:55:26.481Z,5.85
2022-10-22T06:57:54.046Z,3.67
2022-10-22T07:00:22.359Z,6.88
2022-10-22T07:02:56.367Z,9.85
2022-10-22T07:05:26.795Z,8.60
2022-10-22T07:07:54.444Z,6.50
2022-10-22T07:10:25.010Z,8.45
2022-10-22T07:12:56.006Z,11.20
2022-10-22T07:15:23.574Z,4.25
2022-10-22T07:17:51.733Z,4.03
2022-10-22T07:20:21.612Z,5.72
2022-10-22T07:22:49.241Z,6.75
2022-10-22T07:25:16.857Z,3.28
2022-10-22T07:27:45.796Z,7.75
2022-10-22T07:30:13.749Z,3.85
2022-10-22T07:32:41.507Z,3.95
2022-10-22T07:35:09.444Z,7.10
2022-10-22T07:37:37.101Z,7.97
2022-10-22T07:40:05.041Z,4.90
2022-10-22T07:42:32.608Z,3.10
2022-10-22T07:45:01.542Z,5.07
2022-10-22T07:47:29.519Z,5.03
2022-10-22T07:49:57.128Z,3.67
2022-10-22T07:52:24.759Z,7.60
2022-10-22T07:54:52.410Z,4.50
2022-10-22T07:57:20.033Z,4.63
2022-10-22T07:59:47.688Z,4.03
2022-10-22T08:02:16.650Z,3.03
2022-10-22T08:04:44.532Z,5.35
2022-10-22T08:07:12.150Z,10.93
2022-10-22T08:09:39.770Z,4.07
2022-10-22T08:12:10.284Z,3.55
2022-10-22T08:14:37.874Z,5.03
2022-10-22T08:17:05.585Z,8.73
2022-10-22T08:19:35.437Z,4.85
2022-10-22T08:22:03.133Z,4.55
2022-10-22T08:24:30.772Z,7.45
2022-10-22T08:26:58.657Z,3.58
2022-10-22T08:29:26.876Z,9.93
2022-10-22T08:31:55.130Z,4.07
2022-10-22T08:34:23.077Z,4.95
2022-10-22T08:36:52.037Z,10.50
2022-10-22T08:39:19.681Z,7.40
2022-10-22T08:41:52.073Z,7.47
2022-10-22T08:44:33.816Z,6.55
2022-10-22T08:47:17.454Z,6.55
2022-10-22T08:49:47.944Z,3.53
2022-10-22T08:52:18.138Z,3.85
2022-10-22T08:54:50.036Z,6.38
2022-10-22T08:57:23.904Z,12.82
2022-10-22T08:59:55.309Z,5.85
2022-10-22T09:02:28.816Z,12.35
2022-10-22T09:05:00.531Z,5.25
2022-10-22T09:07:29.631Z,2.33
2022-10-22T09:09:59.106Z,6.53
2022-10-22T09:12:28.096Z,3.63
2022-10-22T09:14:55.865Z,6.82
2022-10-22T09:17:33.928Z,6.20
2022-10-22T09:20:03.992Z,3.20
2022-10-22T09:22:36.761Z,21.90
2022-10-22T09:25:12.646Z,6.53
2022-10-22T09:27:40.714Z,5.10
2022-10-22T09:30:12.549Z,8.32
2022-10-22T09:32:40.335Z,4.22
2022-10-22T09:35:10.972Z,9.65
2022-10-22T09:37:48.042Z,12.30
2022-10-22T09:40:16.295Z,4.20
2022-10-22T09:42:44.723Z,6.25
2022-10-22T09:45:17.512Z,4.60
2022-10-22T09:48:01.026Z,4.47
2022-10-22T09:50:31.126Z,5.68
2022-10-22T09:53:01.715Z,4.57
2022-10-22T09:55:29.420Z,4.28
2022-10-22T09:57:57.766Z,3.65
2022-10-22T10:00:26.111Z,5.53
2022-10-22T10:02:58.239Z,3.00
2022-10-22T10:05:26.965Z,5.03
2022-10-22T10:07:54.610Z,5.55
2022-10-22T10:10:28.860Z,8.40
2022-10-22T10:12:57.853Z,5.17
2022-10-22T10:15:29.011Z,9.43
2022-10-22T10:18:01.780Z,2.92
2022-10-22T10:20:35.925Z,4.43
2022-10-22T10:23:08.550Z,10.85
2022-10-22T10:25:44.071Z,6.60
2022-10-22T10:28:22.414Z,5.03
2022-10-22T10:30:54.605Z,4.55
2022-10-22T10:33:29.230Z,3.47
2022-10-22T10:35:59.516Z,2.50
2022-10-22T10:38:33.734Z,7.22
2022-10-22T10:41:09.402Z,4.90
2022-10-22T10:43:40.258Z,5.25
2022-10-22T10:46:11.758Z,6.15
2022-10-22T10:48:46.421Z,5.00
2022-10-22T10:51:20.655Z,2.65
2022-10-22T10:53:54.889Z,12.50
2022-10-22T10:56:34.399Z,3.53
2022-10-22T10:59:11.490Z,4.50
2022-10-22T11:01:43.599Z,8.20
2022-10-22T11:04:22.734Z,8.13
2022-10-22T11:06:51.672Z,2.42
2022-10-22T11:09:23.218Z,3.83
2022-10-22T11:11:55.303Z,3.88
2022-10-22T11:14:27.850Z,5.40
2022-10-22T11:17:01.681Z,8.90
2022-10-22T11:19:50.247Z,11.23
2022-10-22T11:22:26.580Z,4.07
2022-10-22T11:24:56.868Z,8.48
2022-10-22T11:27:28.460Z,4.60
2022-10-22T11:29:58.756Z,3.80
2022-10-22T11:32:27.491Z,6.90
2022-10-22T11:34:56.136Z,10.50
2022-10-22T11:37:26.469Z,3.53
2022-10-22T11:39:55.539Z,4.82
2022-10-22T11:42:24.834Z,4.32
2022-10-22T11:45:03.414Z,3.35
2022-10-22T11:47:34.078Z,7.05
2022-10-22T11:50:12.581Z,2.35
2022-10-22T11:52:42.226Z,4.30
2022-10-22T11:55:24.730Z,5.40
2022-10-22T11:57:52.374Z,8.65
2022-10-22T12:00:35.669Z,7.05
2022-10-22T12:03:06.002Z,3.97
2022-10-22T12:05:35.447Z,4.03
2022-10-22T12:08:22.949Z,3.97
2022-10-22T12:10:58.859Z,5.22
2022-10-22T12:13:27.754Z,10.15
2022-10-22T12:15:58.954Z,3.88
2022-10-22T12:18:27.716Z,3.97
2022-10-22T12:20:55.473Z,4.78
2022-10-22T12:23:27.208Z,2.55
2022-10-22T12:25:54.887Z,4.05
2022-10-22T12:28:23.054Z,4.35
2022-10-22T12:30:50.880Z,4.60
2022-10-22T12:33:21.599Z,4.00
2022-10-22T12:35:53.125Z,4.93
2022-10-22T12:38:22.483Z,9.45
2022-10-22T12:40:51.325Z,4.72
2022-10-22T12:43:19.806Z,9.15
2022-10-22T12:45:48.562Z,3.42
2022-10-22T12:48:18.082Z,2.20
2022-10-22T12:50:48.360Z,3.72
2022-10-22T12:53:17.764Z,5.15
2022-10-22T12:55:47.184Z,7.70
2022-10-22T12:58:17.750Z,5.85
2022-10-22T13:00:46.468Z,3.78
2022-10-22T13:03:26.391Z,3.15
2022-10-22T13:05:55.466Z,3.88
2022-10-22T13:10:57.299Z,3.97
2022-10-22T13:13:34.955Z,4.15
2022-10-22T13:16:15.959Z,2.35
2022-10-22T13:18:44.798Z,1.45
2022-10-22T13:21:24.547Z,6.78
2022-10-22T13:23:56.301Z,4.82
2022-10-22T13:26:24.695Z,5.93
2022-10-22T13:28:53.647Z,6.93
2022-10-22T13:31:22.268Z,2.30
2022-10-22T13:33:53.434Z,4.97
2022-10-22T13:36:21.177Z,9.13
2022-10-22T13:38:50.290Z,3.55
2022-10-22T13:41:22.130Z,3.63
2022-10-22T13:43:50.643Z,6.15
2022-10-22T13:46:18.393Z,2.65
2022-10-22T13:48:46.212Z,6.22
2022-10-22T13:51:15.770Z,7.13
2022-10-22T13:53:45.956Z,5.03
2022-10-22T13:56:16.593Z,3.60
2022-10-22T13:58:44.628Z,1.83
2022-10-22T14:01:17.716Z,4.45
2022-10-22T14:03:45.451Z,5.13
2022-10-22T14:06:14.277Z,2.65
2022-10-22T14:08:42.617Z,7.57
2022-10-22T14:11:10.984Z,3.40
2022-10-22T14:13:40.402Z,4.30
2022-10-22T14:16:08.493Z,5.88
2022-10-22T14:18:36.740Z,4.43
2022-10-22T14:21:07.395Z,4.45
2022-10-22T14:23:35.967Z,6.85
2022-10-22T14:26:04.673Z,4.28
2022-10-22T14:28:40.994Z,3.10
2022-10-22T14:31:15.266Z,5.22
2022-10-22T14:33:43.088Z,3.65
2022-10-22T14:36:12.438Z,5.22
2022-10-22T14:38:40.074Z,1.38
2022-10-22T14:41:15.991Z,4.40
2022-10-22T14:43:43.657Z,4.38
2022-10-22T14:46:12.133Z,3.83
2022-10-22T14:48:41.291Z,9.65
2022-10-22T14:51:08.991Z,4.18
2022-10-22T14:53:36.619Z,4.13
2022-10-22T14:56:04.329Z,4.60
2022-10-22T14:58:31.991Z,4.50
2022-10-22T15:01:02.589Z,2.53
2022-10-22T15:03:31.261Z,5.32
2022-10-22T15:06:00.630Z,7.05
2022-10-22T15:08:28.382Z,5.07
2022-10-22T15:10:59.872Z,4.00
2022-10-22T15:13:27.857Z,8.98
2022-10-22T15:15:55.573Z,2.17
2022-10-22T15:18:24.350Z,4.53
2022-10-22T15:21:00.951Z,4.90
2022-10-22T15:23:28.697Z,4.40
2022-10-22T15:25:56.765Z,3.20
2022-10-22T15:28:24.695Z,6.70
2022-10-22T15:30:55.894Z,10.02
2022-10-22T15:33:23.574Z,7.85
2022-10-22T15:35:53.183Z,5.93
2022-10-22T15:38:22.642Z,5.30
2022-10-22T15:40:50.466Z,5.38
2022-10-22T15:43:18.099Z,5.15
2022-10-22T15:45:45.737Z,1.90
2022-10-22T15:48:15.445Z,4.72
2022-10-22T15:50:43.281Z,1.50
2022-10-22T15:53:11.334Z,2.65
2022-10-22T15:55:40.257Z,7.90
2022-10-22T15:58:07.821Z,2.30
2022-10-22T16:00:35.518Z,3.45
2022-10-22T16:03:03.223Z,3.90
2022-10-22T16:05:31.314Z,11.80
2022-10-22T16:07:59.022Z,7.45
2022-10-22T16:10:28.112Z,4.43
2022-10-22T16:12:58.601Z,4.75
2022-10-22T16:15:26.355Z,4.15
2022-10-22T16:17:54.053Z,2.15
2022-10-22T16:20:21.658Z,8.68
2022-10-22T16:22:50.600Z,6.55
2022-10-22T16:25:18.234Z,8.90
2022-10-22T16:27:46.063Z,2.95
2022-10-22T16:30:15.352Z,8.05
2022-10-22T16:32:43.227Z,3.72
2022-10-22T16:35:11.081Z,3.47
2022-10-22T16:37:39.090Z,6.85
2022-10-22T16:40:08.470Z,5.20
2022-10-22T16:42:36.469Z,19.27
2022-10-22T16:45:04.377Z,5.82
2022-10-22T16:47:33.403Z,6.10
2022-10-22T16:50:01.192Z,3.78
2022-10-22T16:52:29.019Z,7.60
2022-10-22T16:54:58.113Z,6.70
2022-10-22T16:57:25.932Z,13.77
2022-10-22T16:59:53.912Z,4.03
2022-10-22T17:02:21.622Z,5.75
2022-10-22T17:04:50.663Z,9.13
2022-10-22T17:07:18.354Z,10.15
2022-10-22T17:09:45.981Z,6.60
2022-10-22T17:12:13.582Z,7.88
2022-10-22T17:14:41.180Z,5.45
2022-10-22T17:17:08.809Z,11.30
2022-10-22T17:19:38.789Z,7.03
2022-10-22T17:22:07.924Z,8.75
2022-10-22T17:24:35.653Z,7.55
2022-10-22T17:29:36.811Z,34.88
2022-10-22T17:32:04.483Z,28.65
2022-10-22T17:34:33.299Z,11.18
2022-10-22T17:37:01.082Z,8.57
2022-10-22T17:39:30.077Z,11.38
2022-10-22T17:41:57.673Z,7.05
2022-10-22T17:44:25.301Z,13.43
2022-10-22T17:46:53.485Z,103.00
2022-10-22T17:49:21.445Z,121.47
2022-10-22T17:51:49.103Z,120.00
2022-10-22T17:54:16.790Z,131.40
2022-10-22T17:56:45.820Z,126.35
2022-10-22T17:59:14.452Z,113.85
2022-10-22T18:01:45.594Z,168.25
2022-10-22T18:04:15.359Z,48.10
2022-10-22T18:06:43.031Z,18.30
2022-10-22T18:09:13.240Z,9.73
2022-10-22T18:11:44.154Z,7.90
2022-10-22T18:14:13.097Z,8.50
2022-10-22T18:16:40.742Z,10.50
2022-10-22T18:19:08.337Z,10.85
2022-10-22T18:21:36.975Z,13.52
2022-10-22T18:24:04.683Z,13.35
2022-10-22T18:26:32.370Z,10.40
2022-10-22T18:29:00.215Z,6.32
2022-10-22T18:31:30.366Z,6.30
2022-10-22T18:33:58.254Z,8.95
2022-10-22T18:36:26.792Z,10.93
2022-10-22T18:38:57.743Z,11.93
2022-10-22T18:41:25.745Z,13.43
2022-10-22T18:43:53.921Z,8.82
2022-10-22T18:46:22.184Z,11.93
2022-10-22T18:48:51.303Z,8.63
2022-10-22T18:51:18.937Z,9.30
2022-10-22T18:53:59.024Z,7.95
2022-10-22T18:56:33.434Z,13.48
2022-10-22T18:59:01.165Z,9.82
2022-10-22T19:01:30.543Z,12.93
2022-10-22T19:03:59.546Z,9.77
2022-10-22T19:06:31.993Z,10.95
2022-10-22T19:09:01.223Z,9.57
2022-10-22T19:11:28.884Z,9.52
2022-10-22T19:13:56.590Z,13.18
2022-10-22T19:16:24.578Z,9.15
2022-10-22T19:18:53.013Z,11.88
2022-10-22T19:21:22.873Z,11.52
2022-10-22T19:23:51.637Z,9.48
2022-10-22T19:26:21.439Z,11.98
2022-10-22T19:28:49.153Z,12.35
2022-10-22T19:31:18.889Z,9.15
2022-10-22T19:33:47.714Z,15.93
2022-10-22T19:36:16.131Z,10.45
2022-10-22T19:38:46.053Z,15.45
2022-10-22T19:41:14.985Z,11.13
2022-10-22T19:43:42.939Z,16.90
2022-10-22T19:46:10.918Z,13.75
2022-10-22T19:48:38.833Z,13.23
2022-10-22T19:51:08.499Z,11.15
2022-10-22T19:53:37.503Z,13.05
2022-10-22T19:56:08.705Z,13.13
2022-10-22T19:58:36.423Z,14.40
2022-10-22T20:01:04.780Z,16.88
2022-10-22T20:03:32.670Z,13.60
2022-10-22T20:06:00.278Z,13.27
2022-10-22T20:08:27.854Z,13.77
2022-10-22T20:10:55.449Z,14.00
2022-10-22T20:13:24.649Z,13.50
2022-10-22T20:15:52.673Z,14.65
2022-10-22T20:18:22.408Z,15.10
2022-10-22T20:20:50.186Z,13.98
2022-10-22T20:23:18.306Z,11.82
2022-10-22T20:25:46.935Z,11.52
2022-10-22T20:28:15.547Z,12.38
2022-10-22T20:30:44.912Z,10.68
2022-10-22T20:33:12.830Z,11.07
2022-10-22T20:35:40.568Z,14.57
2022-10-22T20:38:08.703Z,10.23
2022-10-22T20:40:37.322Z,14.50
2022-10-22T20:43:05.032Z,15.55
2022-10-22T20:45:32.590Z,15.85
2022-10-22T20:48:02.996Z,11.85
2022-10-22T20:50:32.330Z,14.05
2022-10-22T20:53:00.160Z,12.80
2022-10-22T20:55:28.080Z,11.95
2022-10-22T20:57:56.293Z,14.30
2022-10-22T21:00:23.922Z,18.27
2022-10-22T21:02:51.516Z,16.80
2022-10-22T21:05:20.568Z,16.88
2022-10-22T21:07:48.371Z,11.75
2022-10-22T21:10:16.023Z,11.65
2022-10-22T21:12:45.455Z,12.80
2022-10-22T21:15:13.859Z,9.43
2022-10-22T21:17:41.485Z,9.70
2022-10-22T21:22:43.518Z,16.75
2022-10-22T21:25:11.286Z,9.85
2022-10-22T21:27:38.948Z,16.70
2022-10-22T21:30:06.928Z,13.98
2022-10-22T21:32:34.704Z,17.98
2022-10-22T21:35:02.324Z,15.80
2022-10-22T21:37:30.990Z,16.35
2022-10-22T21:40:00.705Z,11.52
2022-10-22T21:42:28.316Z,10.07
2022-10-22T21:44:56.062Z,11.93
2022-10-22T21:47:23.899Z,16.75
2022-10-22T21:49:51.539Z,10.68
2022-10-22T21:52:19.373Z,13.57
2022-10-22T21:54:46.953Z,10.48
2022-10-22T21:57:15.969Z,14.77
2022-10-22T21:59:43.595Z,11.30
2022-10-22T22:02:11.436Z,11.90
2022-10-22T22:04:39.133Z,22.75
2022-10-22T22:07:06.727Z,13.45
2022-10-22T22:09:34.688Z,12.48
2022-10-22T22:12:02.463Z,16.50
2022-10-22T22:14:32.707Z,11.05
2022-10-22T22:17:00.312Z,9.52
2022-10-22T22:19:28.055Z,12.60
2022-10-22T22:21:55.698Z,15.93
2022-10-22T22:24:23.296Z,14.23
2022-10-22T22:26:51.007Z,13.77
2022-10-22T22:29:18.725Z,11.85
2022-10-22T22:31:47.693Z,12.82
2022-10-22T22:34:16.275Z,18.33
2022-10-22T22:36:45.462Z,10.80
2022-10-22T22:39:13.702Z,13.40
2022-10-22T22:41:41.373Z,11.55
2022-10-22T22:44:09.041Z,8.75
2022-10-22T22:46:36.943Z,17.05
2022-10-22T22:49:06.069Z,13.82
2022-10-22T22:51:34.099Z,12.43
2022-10-22T22:54:01.974Z,10.15
2022-10-22T22:56:30.509Z,15.50
2022-10-22T22:58:58.380Z,11.57
2022-10-22T23:01:27.237Z,16.40
2022-10-22T23:03:56.672Z,8.32
2022-10-22T23:06:26.360Z,14.15
2022-10-22T23:08:54.624Z,11.18
2022-10-22T23:11:22.981Z,16.05
2022-10-22T23:13:53.380Z,10.50
2022-10-22T23:16:21.937Z,10.57
2022-10-22T23:18:50.122Z,12.60
2022-10-22T23:21:18.973Z,19.00
2022-10-22T23:23:49.324Z,14.88
2022-10-22T23:26:18.202Z,11.90
2022-10-22T23:28:46.123Z,12.25
2022-10-22T23:31:14.917Z,13.88
2022-10-22T23:33:42.665Z,10.82
2022-10-22T23:36:10.824Z,14.30
2022-10-22T23:38:39.860Z,14.23
2022-10-22T23:41:09.261Z,11.40
2022-10-22T23:43:37.694Z,14.57
2022-10-22T23:46:05.540Z,10.23
2022-10-22T23:48:33.360Z,14.15
2022-10-22T23:51:04.535Z,13.65
2022-10-22T23:53:32.169Z,17.75
2022-10-22T23:56:03.802Z,16.08
2022-10-22T23:58:32.818Z,15.23
